sensor_id;sensor_type;location;lat;lon;timestamp;P1;durP1;ratioP1;P2;durP2;ratioP2
48743;SDS011;34538;48.836;9.174;2022-12-18T00:02:03;40.23;;;17.50;;
48743;SDS011;34538;48.836;9.174;2022-12-18T00:04:30;41.13;;;15.77;;
48743;SDS011;34538;48.836;9.174;2022-12-18T00:06:58;40.53;;;16.50;;
48743;SDS011;34538;48.836;9.174;2022-12-18T00:09:25;47.33;;;17.33;;
48743;SDS011;34538;48.836;9.174;2022-12-18T00:11:52;40.60;;;17.20;;
48743;SDS011;34538;48.836;9.174;2022-12-18T00:14:18;48.07;;;17.10;;
48743;SDS011;34538;48.836;9.174;2022-12-18T00:16:46;41.87;;;16.40;;
48743;SDS011;34538;48.836;9.174;2022-12-18T00:19:13;38.73;;;16.00;;
48743;SDS011;34538;48.836;9.174;2022-12-18T00:21:41;39.67;;;15.03;;
48743;SDS011;34538;48.836;9.174;2022-12-18T00:24:11;46.70;;;17.37;;
48743;SDS011;34538;48.836;9.174;2022-12-18T00:26:38;44.23;;;15.93;;
48743;SDS011;34538;48.836;9.174;2022-12-18T00:29:07;41.93;;;16.43;;
48743;SDS011;34538;48.836;9.174;2022-12-18T00:34:03;38.40;;;15.17;;
48743;SDS011;34538;48.836;9.174;2022-12-18T00:36:30;41.57;;;15.70;;
48743;SDS011;34538;48.836;9.174;2022-12-18T00:39:00;44.63;;;17.40;;
48743;SDS011;34538;48.836;9.174;2022-12-18T00:41:29;42.73;;;16.30;;
48743;SDS011;34538;48.836;9.174;2022-12-18T00:44:15;42.53;;;17.03;;
48743;SDS011;34538;48.836;9.174;2022-12-18T00:46:44;47.63;;;15.83;;
48743;SDS011;34538;48.836;9.174;2022-12-18T00:49:12;43.47;;;17.10;;
48743;SDS011;34538;48.836;9.174;2022-12-18T00:51:39;40.03;;;16.40;;
48743;SDS011;34538;48.836;9.174;2022-12-18T00:54:06;43.57;;;16.80;;
48743;SDS011;34538;48.836;9.174;2022-12-18T00:56:36;36.33;;;15.13;;
48743;SDS011;34538;48.836;9.174;2022-12-18T00:59:03;37.90;;;15.27;;
48743;SDS011;34538;48.836;9.174;2022-12-18T01:01:30;46.87;;;17.60;;
48743;SDS011;34538;48.836;9.174;2022-12-18T01:03:59;42.67;;;15.17;;
48743;SDS011;34538;48.836;9.174;2022-12-18T01:06:26;42.43;;;17.70;;
48743;SDS011;34538;48.836;9.174;2022-12-18T01:08:53;41.83;;;16.17;;
48743;SDS011;34538;48.836;9.174;2022-12-18T01:11:20;42.73;;;17.37;;
48743;SDS011;34538;48.836;9.174;2022-12-18T01:13:49;42.33;;;16.60;;
48743;SDS011;34538;48.836;9.174;2022-12-18T01:16:17;37.87;;;16.07;;
48743;SDS011;34538;48.836;9.174;2022-12-18T01:18:44;44.67;;;17.60;;
48743;SDS011;34538;48.836;9.174;2022-12-18T01:21:12;49.83;;;17.00;;
48743;SDS011;34538;48.836;9.174;2022-12-18T01:23:40;44.40;;;17.13;;
48743;SDS011;34538;48.836;9.174;2022-12-18T01:26:11;41.25;;;16.85;;
48743;SDS011;34538;48.836;9.174;2022-12-18T01:28:39;39.93;;;17.03;;
48743;SDS011;34538;48.836;9.174;2022-12-18T01:31:14;42.00;;;16.07;;
48743;SDS011;34538;48.836;9.174;2022-12-18T01:33:43;48.03;;;16.97;;
48743;SDS011;34538;48.836;9.174;2022-12-18T01:36:16;44.53;;;16.13;;
48743;SDS011;34538;48.836;9.174;2022-12-18T01:38:45;48.20;;;18.07;;
48743;SDS011;34538;48.836;9.174;2022-12-18T01:41:12;47.73;;;17.17;;
48743;SDS011;34538;48.836;9.174;2022-12-18T01:43:43;38.07;;;15.80;;
48743;SDS011;34538;48.836;9.174;2022-12-18T01:46:14;42.70;;;16.13;;
48743;SDS011;34538;48.836;9.174;2022-12-18T01:48:41;40.87;;;16.60;;
48743;SDS011;34538;48.836;9.174;2022-12-18T01:51:10;41.80;;;17.13;;
48743;SDS011;34538;48.836;9.174;2022-12-18T01:53:39;43.57;;;16.87;;
48743;SDS011;34538;48.836;9.174;2022-12-18T01:56:08;38.47;;;16.63;;
48743;SDS011;34538;48.836;9.174;2022-12-18T01:58:40;41.70;;;16.17;;
48743;SDS011;34538;48.836;9.174;2022-12-18T02:01:12;41.93;;;15.00;;
48743;SDS011;34538;48.836;9.174;2022-12-18T02:03:40;43.10;;;15.27;;
48743;SDS011;34538;48.836;9.174;2022-12-18T02:06:10;46.53;;;18.30;;
48743;SDS011;34538;48.836;9.174;2022-12-18T02:08:45;41.90;;;16.57;;
48743;SDS011;34538;48.836;9.174;2022-12-18T02:11:22;37.97;;;16.40;;
48743;SDS011;34538;48.836;9.174;2022-12-18T02:13:58;33.30;;;16.23;;
48743;SDS011;34538;48.836;9.174;2022-12-18T02:16:37;37.37;;;15.27;;
48743;SDS011;34538;48.836;9.174;2022-12-18T02:19:14;39.07;;;15.17;;
48743;SDS011;34538;48.836;9.174;2022-12-18T02:21:48;41.73;;;16.60;;
48743;SDS011;34538;48.836;9.174;2022-12-18T02:24:24;43.30;;;16.57;;
48743;SDS011;34538;48.836;9.174;2022-12-18T02:26:58;38.37;;;14.83;;
48743;SDS011;34538;48.836;9.174;2022-12-18T02:29:30;41.47;;;16.03;;
48743;SDS011;34538;48.836;9.174;2022-12-18T02:32:02;45.77;;;16.10;;
48743;SDS011;34538;48.836;9.174;2022-12-18T02:34:34;39.53;;;15.53;;
48743;SDS011;34538;48.836;9.174;2022-12-18T02:37:09;41.90;;;15.03;;
48743;SDS011;34538;48.836;9.174;2022-12-18T02:39:40;36.37;;;14.60;;
48743;SDS011;34538;48.836;9.174;2022-12-18T02:42:13;42.30;;;15.43;;
48743;SDS011;34538;48.836;9.174;2022-12-18T02:44:44;41.13;;;15.03;;
48743;SDS011;34538;48.836;9.174;2022-12-18T02:47:16;36.20;;;15.20;;
48743;SDS011;34538;48.836;9.174;2022-12-18T02:49:49;42.13;;;16.40;;
48743;SDS011;34538;48.836;9.174;2022-12-18T02:52:29;44.43;;;14.93;;
48743;SDS011;34538;48.836;9.174;2022-12-18T02:55:07;38.33;;;15.73;;
48743;SDS011;34538;48.836;9.174;2022-12-18T02:57:48;36.47;;;14.87;;
48743;SDS011;34538;48.836;9.174;2022-12-18T03:00:24;34.37;;;15.00;;
48743;SDS011;34538;48.836;9.174;2022-12-18T03:02:59;36.13;;;15.20;;
48743;SDS011;34538;48.836;9.174;2022-12-18T03:05:33;37.50;;;15.53;;
48743;SDS011;34538;48.836;9.174;2022-12-18T03:08:03;40.17;;;15.32;;
48743;SDS011;34538;48.836;9.174;2022-12-18T03:10:37;48.23;;;15.87;;
48743;SDS011;34538;48.836;9.174;2022-12-18T03:13:12;38.20;;;15.30;;
48743;SDS011;34538;48.836;9.174;2022-12-18T03:15:44;38.47;;;14.30;;
48743;SDS011;34538;48.836;9.174;2022-12-18T03:18:14;39.30;;;14.47;;
48743;SDS011;34538;48.836;9.174;2022-12-18T03:20:44;36.20;;;14.50;;
48743;SDS011;34538;48.836;9.174;2022-12-18T03:23:18;40.67;;;15.13;;
48743;SDS011;34538;48.836;9.174;2022-12-18T03:25:51;36.37;;;14.10;;
48743;SDS011;34538;48.836;9.174;2022-12-18T03:28:25;40.40;;;15.50;;
48743;SDS011;34538;48.836;9.174;2022-12-18T03:30:59;39.07;;;13.97;;
48743;SDS011;34538;48.836;9.174;2022-12-18T03:33:29;39.83;;;14.63;;
48743;SDS011;34538;48.836;9.174;2022-12-18T03:36:00;36.50;;;16.20;;
48743;SDS011;34538;48.836;9.174;2022-12-18T03:38:28;37.60;;;14.47;;
48743;SDS011;34538;48.836;9.174;2022-12-18T03:40:58;34.43;;;13.93;;
48743;SDS011;34538;48.836;9.174;2022-12-18T03:43:38;32.60;;;14.50;;
48743;SDS011;34538;48.836;9.174;2022-12-18T03:46:15;36.00;;;14.10;;
48743;SDS011;34538;48.836;9.174;2022-12-18T03:48:48;35.80;;;13.77;;
48743;SDS011;34538;48.836;9.174;2022-12-18T03:51:24;34.70;;;13.70;;
48743;SDS011;34538;48.836;9.174;2022-12-18T03:53:57;30.07;;;12.87;;
48743;SDS011;34538;48.836;9.174;2022-12-18T03:56:31;37.60;;;13.83;;
48743;SDS011;34538;48.836;9.174;2022-12-18T03:59:06;36.27;;;14.23;;
48743;SDS011;34538;48.836;9.174;2022-12-18T04:01:37;37.93;;;13.90;;
48743;SDS011;34538;48.836;9.174;2022-12-18T04:04:08;39.13;;;14.87;;
48743;SDS011;34538;48.836;9.174;2022-12-18T04:06:40;39.60;;;14.37;;
48743;SDS011;34538;48.836;9.174;2022-12-18T04:09:09;28.40;;;13.38;;
48743;SDS011;34538;48.836;9.174;2022-12-18T04:11:41;30.73;;;13.57;;
48743;SDS011;34538;48.836;9.174;2022-12-18T04:14:11;40.87;;;16.60;;
48743;SDS011;34538;48.836;9.174;2022-12-18T04:16:38;38.80;;;14.97;;
48743;SDS011;34538;48.836;9.174;2022-12-18T04:19:09;28.90;;;11.40;;
48743;SDS011;34538;48.836;9.174;2022-12-18T04:21:39;39.25;;;14.25;;
48743;SDS011;34538;48.836;9.174;2022-12-18T04:24:09;34.53;;;14.03;;
48743;SDS011;34538;48.836;9.174;2022-12-18T04:26:41;40.87;;;15.23;;
48743;SDS011;34538;48.836;9.174;2022-12-18T04:29:14;40.33;;;16.37;;
48743;SDS011;34538;48.836;9.174;2022-12-18T04:31:41;42.07;;;14.23;;
48743;SDS011;34538;48.836;9.174;2022-12-18T04:34:08;46.37;;;15.87;;
48743;SDS011;34538;48.836;9.174;2022-12-18T04:36:41;38.63;;;16.13;;
48743;SDS011;34538;48.836;9.174;2022-12-18T04:39:08;34.30;;;15.43;;
48743;SDS011;34538;48.836;9.174;2022-12-18T04:41:35;31.57;;;14.00;;
48743;SDS011;34538;48.836;9.174;2022-12-18T04:44:03;36.77;;;14.27;;
48743;SDS011;34538;48.836;9.174;2022-12-18T04:46:31;39.07;;;14.37;;
48743;SDS011;34538;48.836;9.174;2022-12-18T04:48:58;40.30;;;15.87;;
48743;SDS011;34538;48.836;9.174;2022-12-18T04:51:25;39.50;;;15.40;;
48743;SDS011;34538;48.836;9.174;2022-12-18T04:53:52;40.87;;;16.47;;
48743;SDS011;34538;48.836;9.174;2022-12-18T04:56:19;36.80;;;15.20;;
48743;SDS011;34538;48.836;9.174;2022-12-18T04:58:47;36.60;;;15.23;;
48743;SDS011;34538;48.836;9.174;2022-12-18T05:01:14;39.23;;;15.73;;
48743;SDS011;34538;48.836;9.174;2022-12-18T05:03:44;38.47;;;14.93;;
48743;SDS011;34538;48.836;9.174;2022-12-18T05:06:11;30.87;;;14.17;;
48743;SDS011;34538;48.836;9.174;2022-12-18T05:08:37;34.63;;;14.90;;
48743;SDS011;34538;48.836;9.174;2022-12-18T05:11:05;36.07;;;14.07;;
48743;SDS011;34538;48.836;9.174;2022-12-18T05:13:34;38.60;;;14.03;;
48743;SDS011;34538;48.836;9.174;2022-12-18T05:16:01;39.13;;;15.10;;
48743;SDS011;34538;48.836;9.174;2022-12-18T05:18:29;39.33;;;15.53;;
48743;SDS011;34538;48.836;9.174;2022-12-18T05:20:57;41.07;;;14.77;;
48743;SDS011;34538;48.836;9.174;2022-12-18T05:23:24;44.57;;;17.17;;
48743;SDS011;34538;48.836;9.174;2022-12-18T05:25:52;32.67;;;13.87;;
48743;SDS011;34538;48.836;9.174;2022-12-18T05:28:19;38.60;;;15.00;;
48743;SDS011;34538;48.836;9.174;2022-12-18T05:30:47;37.13;;;14.07;;
48743;SDS011;34538;48.836;9.174;2022-12-18T05:33:15;36.83;;;13.33;;
48743;SDS011;34538;48.836;9.174;2022-12-18T05:35:42;37.20;;;14.10;;
48743;SDS011;34538;48.836;9.174;2022-12-18T05:38:10;35.27;;;13.90;;
48743;SDS011;34538;48.836;9.174;2022-12-18T05:40:40;35.47;;;14.10;;
48743;SDS011;34538;48.836;9.174;2022-12-18T05:43:08;33.40;;;12.75;;
48743;SDS011;34538;48.836;9.174;2022-12-18T05:45:36;39.53;;;14.27;;
48743;SDS011;34538;48.836;9.174;2022-12-18T05:48:03;35.10;;;13.70;;
48743;SDS011;34538;48.836;9.174;2022-12-18T05:50:30;32.97;;;13.40;;
48743;SDS011;34538;48.836;9.174;2022-12-18T05:53:00;36.92;;;14.27;;
48743;SDS011;34538;48.836;9.174;2022-12-18T05:55:29;32.60;;;14.17;;
48743;SDS011;34538;48.836;9.174;2022-12-18T05:57:58;35.90;;;14.37;;
48743;SDS011;34538;48.836;9.174;2022-12-18T06:00:25;33.87;;;12.33;;
48743;SDS011;34538;48.836;9.174;2022-12-18T06:02:52;37.50;;;14.33;;
48743;SDS011;34538;48.836;9.174;2022-12-18T06:05:19;35.27;;;12.97;;
48743;SDS011;34538;48.836;9.174;2022-12-18T06:07:46;38.50;;;14.10;;
48743;SDS011;34538;48.836;9.174;2022-12-18T06:10:13;35.20;;;13.37;;
48743;SDS011;34538;48.836;9.174;2022-12-18T06:12:41;31.93;;;13.07;;
48743;SDS011;34538;48.836;9.174;2022-12-18T06:15:08;32.20;;;12.67;;
48743;SDS011;34538;48.836;9.174;2022-12-18T06:17:35;43.63;;;15.57;;
48743;SDS011;34538;48.836;9.174;2022-12-18T06:20:03;35.50;;;12.40;;
48743;SDS011;34538;48.836;9.174;2022-12-18T06:22:31;35.43;;;15.07;;
48743;SDS011;34538;48.836;9.174;2022-12-18T06:24:58;37.30;;;13.60;;
48743;SDS011;34538;48.836;9.174;2022-12-18T06:27:25;34.43;;;13.17;;
48743;SDS011;34538;48.836;9.174;2022-12-18T06:29:53;33.37;;;13.27;;
48743;SDS011;34538;48.836;9.174;2022-12-18T06:32:20;30.03;;;11.60;;
48743;SDS011;34538;48.836;9.174;2022-12-18T06:34:47;31.30;;;13.43;;
48743;SDS011;34538;48.836;9.174;2022-12-18T06:37:14;33.40;;;12.27;;
48743;SDS011;34538;48.836;9.174;2022-12-18T06:39:41;31.63;;;11.70;;
48743;SDS011;34538;48.836;9.174;2022-12-18T06:42:08;35.47;;;12.73;;
48743;SDS011;34538;48.836;9.174;2022-12-18T06:44:35;31.47;;;12.17;;
48743;SDS011;34538;48.836;9.174;2022-12-18T06:47:03;30.80;;;11.33;;
48743;SDS011;34538;48.836;9.174;2022-12-18T06:49:30;31.47;;;12.33;;
48743;SDS011;34538;48.836;9.174;2022-12-18T06:51:57;37.93;;;16.27;;
48743;SDS011;34538;48.836;9.174;2022-12-18T06:54:24;38.97;;;15.17;;
48743;SDS011;34538;48.836;9.174;2022-12-18T06:56:50;31.20;;;12.33;;
48743;SDS011;34538;48.836;9.174;2022-12-18T06:59:17;30.17;;;12.10;;
48743;SDS011;34538;48.836;9.174;2022-12-18T07:01:44;35.30;;;14.03;;
48743;SDS011;34538;48.836;9.174;2022-12-18T07:04:12;34.03;;;13.33;;
48743;SDS011;34538;48.836;9.174;2022-12-18T07:06:39;29.33;;;11.97;;
48743;SDS011;34538;48.836;9.174;2022-12-18T07:09:06;29.43;;;12.93;;
48743;SDS011;34538;48.836;9.174;2022-12-18T07:11:33;28.80;;;11.87;;
48743;SDS011;34538;48.836;9.174;2022-12-18T07:14:00;23.73;;;11.60;;
48743;SDS011;34538;48.836;9.174;2022-12-18T07:16:27;32.83;;;11.23;;
48743;SDS011;34538;48.836;9.174;2022-12-18T07:18:54;26.30;;;11.40;;
48743;SDS011;34538;48.836;9.174;2022-12-18T07:21:23;27.10;;;11.20;;
48743;SDS011;34538;48.836;9.174;2022-12-18T07:23:51;29.77;;;11.10;;
48743;SDS011;34538;48.836;9.174;2022-12-18T07:26:18;34.13;;;12.93;;
48743;SDS011;34538;48.836;9.174;2022-12-18T07:28:46;28.73;;;12.50;;
48743;SDS011;34538;48.836;9.174;2022-12-18T07:31:14;27.57;;;10.50;;
48743;SDS011;34538;48.836;9.174;2022-12-18T07:33:43;31.20;;;12.60;;
48743;SDS011;34538;48.836;9.174;2022-12-18T07:36:11;28.87;;;11.90;;
48743;SDS011;34538;48.836;9.174;2022-12-18T07:38:40;31.63;;;14.13;;
48743;SDS011;34538;48.836;9.174;2022-12-18T07:41:07;32.67;;;12.03;;
48743;SDS011;34538;48.836;9.174;2022-12-18T07:43:36;42.17;;;13.17;;
48743;SDS011;34538;48.836;9.174;2022-12-18T07:46:04;27.13;;;12.47;;
48743;SDS011;34538;48.836;9.174;2022-12-18T07:48:31;27.43;;;10.70;;
48743;SDS011;34538;48.836;9.174;2022-12-18T07:50:58;27.07;;;11.77;;
48743;SDS011;34538;48.836;9.174;2022-12-18T07:53:25;24.80;;;11.13;;
48743;SDS011;34538;48.836;9.174;2022-12-18T07:55:56;28.87;;;12.60;;
48743;SDS011;34538;48.836;9.174;2022-12-18T07:58:23;29.20;;;11.23;;
48743;SDS011;34538;48.836;9.174;2022-12-18T08:00:50;31.53;;;11.60;;
48743;SDS011;34538;48.836;9.174;2022-12-18T08:03:17;43.67;;;11.30;;
48743;SDS011;34538;48.836;9.174;2022-12-18T08:05:44;31.83;;;13.03;;
48743;SDS011;34538;48.836;9.174;2022-12-18T08:08:14;27.30;;;11.50;;
48743;SDS011;34538;48.836;9.174;2022-12-18T08:10:41;28.98;;;11.13;;
48743;SDS011;34538;48.836;9.174;2022-12-18T08:13:09;29.90;;;12.27;;
48743;SDS011;34538;48.836;9.174;2022-12-18T08:15:36;31.67;;;14.57;;
48743;SDS011;34538;48.836;9.174;2022-12-18T08:18:03;29.83;;;13.47;;
48743;SDS011;34538;48.836;9.174;2022-12-18T08:20:30;28.87;;;12.80;;
48743;SDS011;34538;48.836;9.174;2022-12-18T08:22:56;28.80;;;11.60;;
48743;SDS011;34538;48.836;9.174;2022-12-18T08:25:23;31.47;;;13.33;;
48743;SDS011;34538;48.836;9.174;2022-12-18T08:27:50;36.17;;;15.60;;
48743;SDS011;34538;48.836;9.174;2022-12-18T08:30:19;31.07;;;12.60;;
48743;SDS011;34538;48.836;9.174;2022-12-18T08:32:46;34.93;;;14.27;;
48743;SDS011;34538;48.836;9.174;2022-12-18T08:35:14;34.77;;;13.97;;
48743;SDS011;34538;48.836;9.174;2022-12-18T08:37:41;37.03;;;15.83;;
48743;SDS011;34538;48.836;9.174;2022-12-18T08:40:08;38.13;;;12.87;;
48743;SDS011;34538;48.836;9.174;2022-12-18T08:42:36;36.93;;;14.80;;
48743;SDS011;34538;48.836;9.174;2022-12-18T08:45:21;39.87;;;14.70;;
48743;SDS011;34538;48.836;9.174;2022-12-18T08:47:49;40.20;;;14.47;;
48743;SDS011;34538;48.836;9.174;2022-12-18T08:50:16;32.90;;;14.67;;
48743;SDS011;34538;48.836;9.174;2022-12-18T08:52:43;37.47;;;13.73;;
48743;SDS011;34538;48.836;9.174;2022-12-18T08:55:10;38.77;;;15.17;;
48743;SDS011;34538;48.836;9.174;2022-12-18T08:57:37;32.13;;;14.17;;
48743;SDS011;34538;48.836;9.174;2022-12-18T09:00:04;34.83;;;14.57;;
48743;SDS011;34538;48.836;9.174;2022-12-18T09:02:34;33.50;;;14.10;;
48743;SDS011;34538;48.836;9.174;2022-12-18T09:05:01;32.63;;;12.83;;
48743;SDS011;34538;48.836;9.174;2022-12-18T09:07:28;39.53;;;15.33;;
48743;SDS011;34538;48.836;9.174;2022-12-18T09:09:54;41.73;;;16.47;;
48743;SDS011;34538;48.836;9.174;2022-12-18T09:12:21;40.07;;;16.27;;
48743;SDS011;34538;48.836;9.174;2022-12-18T09:14:48;39.50;;;15.00;;
48743;SDS011;34538;48.836;9.174;2022-12-18T09:17:15;41.67;;;16.20;;
48743;SDS011;34538;48.836;9.174;2022-12-18T09:19:43;39.33;;;15.00;;
48743;SDS011;34538;48.836;9.174;2022-12-18T09:22:10;39.70;;;14.37;;
48743;SDS011;34538;48.836;9.174;2022-12-18T09:24:45;41.17;;;17.13;;
48743;SDS011;34538;48.836;9.174;2022-12-18T09:27:15;36.57;;;14.77;;
48743;SDS011;34538;48.836;9.174;2022-12-18T09:29:42;36.43;;;15.60;;
48743;SDS011;34538;48.836;9.174;2022-12-18T09:32:09;42.20;;;16.47;;
48743;SDS011;34538;48.836;9.174;2022-12-18T09:34:35;36.67;;;16.20;;
48743;SDS011;34538;48.836;9.174;2022-12-18T09:37:04;37.53;;;16.00;;
48743;SDS011;34538;48.836;9.174;2022-12-18T09:39:30;36.80;;;15.80;;
48743;SDS011;34538;48.836;9.174;2022-12-18T09:41:57;33.83;;;15.03;;
48743;SDS011;34538;48.836;9.174;2022-12-18T09:44:25;33.50;;;14.07;;
48743;SDS011;34538;48.836;9.174;2022-12-18T09:47:06;35.97;;;14.43;;
48743;SDS011;34538;48.836;9.174;2022-12-18T09:49:39;37.07;;;14.77;;
48743;SDS011;34538;48.836;9.174;2022-12-18T09:52:11;39.80;;;15.17;;
48743;SDS011;34538;48.836;9.174;2022-12-18T09:54:43;39.70;;;15.13;;
48743;SDS011;34538;48.836;9.174;2022-12-18T09:57:14;30.92;;;12.70;;
48743;SDS011;34538;48.836;9.174;2022-12-18T09:59:43;32.57;;;15.23;;
48743;SDS011;34538;48.836;9.174;2022-12-18T10:02:16;32.27;;;13.40;;
48743;SDS011;34538;48.836;9.174;2022-12-18T10:04:48;30.23;;;12.63;;
48743;SDS011;34538;48.836;9.174;2022-12-18T10:07:29;36.40;;;15.10;;
48743;SDS011;34538;48.836;9.174;2022-12-18T10:10:07;31.70;;;14.52;;
48743;SDS011;34538;48.836;9.174;2022-12-18T10:12:41;32.93;;;13.20;;
48743;SDS011;34538;48.836;9.174;2022-12-18T10:15:13;34.57;;;14.90;;
48743;SDS011;34538;48.836;9.174;2022-12-18T10:17:50;29.10;;;11.43;;
48743;SDS011;34538;48.836;9.174;2022-12-18T10:20:24;31.93;;;12.33;;
48743;SDS011;34538;48.836;9.174;2022-12-18T10:23:01;34.13;;;13.53;;
48743;SDS011;34538;48.836;9.174;2022-12-18T10:25:38;35.53;;;14.63;;
48743;SDS011;34538;48.836;9.174;2022-12-18T10:28:12;35.07;;;14.63;;
48743;SDS011;34538;48.836;9.174;2022-12-18T10:30:41;32.77;;;13.60;;
48743;SDS011;34538;48.836;9.174;2022-12-18T10:33:09;28.87;;;12.73;;
48743;SDS011;34538;48.836;9.174;2022-12-18T10:35:38;38.53;;;15.37;;
48743;SDS011;34538;48.836;9.174;2022-12-18T10:38:21;25.67;;;11.52;;
48743;SDS011;34538;48.836;9.174;2022-12-18T10:40:51;34.40;;;13.53;;
48743;SDS011;34538;48.836;9.174;2022-12-18T10:43:21;28.90;;;12.20;;
48743;SDS011;34538;48.836;9.174;2022-12-18T10:46:01;22.40;;;11.90;;
48743;SDS011;34538;48.836;9.174;2022-12-18T10:48:47;34.33;;;14.83;;
48743;SDS011;34538;48.836;9.174;2022-12-18T10:51:19;36.07;;;15.47;;
48743;SDS011;34538;48.836;9.174;2022-12-18T10:53:52;35.37;;;14.60;;
48743;SDS011;34538;48.836;9.174;2022-12-18T10:56:22;31.00;;;13.30;;
48743;SDS011;34538;48.836;9.174;2022-12-18T10:58:55;35.07;;;13.60;;
48743;SDS011;34538;48.836;9.174;2022-12-18T11:01:24;30.73;;;13.80;;
48743;SDS011;34538;48.836;9.174;2022-12-18T11:03:59;31.03;;;14.50;;
48743;SDS011;34538;48.836;9.174;2022-12-18T11:06:28;37.13;;;14.97;;
48743;SDS011;34538;48.836;9.174;2022-12-18T11:09:00;30.63;;;14.40;;
48743;SDS011;34538;48.836;9.174;2022-12-18T11:11:28;32.80;;;14.83;;
48743;SDS011;34538;48.836;9.174;2022-12-18T11:14:00;32.67;;;13.43;;
48743;SDS011;34538;48.836;9.174;2022-12-18T11:16:30;32.57;;;13.53;;
48743;SDS011;34538;48.836;9.174;2022-12-18T11:19:09;34.37;;;13.67;;
48743;SDS011;34538;48.836;9.174;2022-12-18T11:21:44;32.83;;;14.60;;
48743;SDS011;34538;48.836;9.174;2022-12-18T11:24:17;32.90;;;14.70;;
48743;SDS011;34538;48.836;9.174;2022-12-18T11:26:48;34.37;;;14.30;;
48743;SDS011;34538;48.836;9.174;2022-12-18T11:29:16;33.13;;;13.70;;
48743;SDS011;34538;48.836;9.174;2022-12-18T11:31:44;34.87;;;14.93;;
48743;SDS011;34538;48.836;9.174;2022-12-18T11:34:11;32.80;;;13.23;;
48743;SDS011;34538;48.836;9.174;2022-12-18T11:36:51;32.63;;;13.53;;
48743;SDS011;34538;48.836;9.174;2022-12-18T11:39:23;30.67;;;13.83;;
48743;SDS011;34538;48.836;9.174;2022-12-18T11:41:58;30.27;;;14.33;;
48743;SDS011;34538;48.836;9.174;2022-12-18T11:44:35;31.87;;;14.47;;
48743;SDS011;34538;48.836;9.174;2022-12-18T11:47:09;33.57;;;13.23;;
48743;SDS011;34538;48.836;9.174;2022-12-18T11:49:45;28.30;;;12.53;;
48743;SDS011;34538;48.836;9.174;2022-12-18T11:52:15;33.37;;;15.80;;
48743;SDS011;34538;48.836;9.174;2022-12-18T11:54:47;29.38;;;14.55;;
48743;SDS011;34538;48.836;9.174;2022-12-18T11:57:19;31.57;;;13.70;;
48743;SDS011;34538;48.836;9.174;2022-12-18T12:00:03;31.35;;;13.65;;
48743;SDS011;34538;48.836;9.174;2022-12-18T12:02:47;34.55;;;14.57;;
48743;SDS011;34538;48.836;9.174;2022-12-18T12:05:36;33.07;;;14.17;;
48743;SDS011;34538;48.836;9.174;2022-12-18T12:08:18;31.60;;;14.60;;
48743;SDS011;34538;48.836;9.174;2022-12-18T12:10:57;36.47;;;15.37;;
48743;SDS011;34538;48.836;9.174;2022-12-18T12:13:34;39.93;;;16.03;;
48743;SDS011;34538;48.836;9.174;2022-12-18T12:16:09;29.90;;;13.87;;
48743;SDS011;34538;48.836;9.174;2022-12-18T12:18:46;31.93;;;15.20;;
48743;SDS011;34538;48.836;9.174;2022-12-18T12:21:33;36.47;;;14.40;;
48743;SDS011;34538;48.836;9.174;2022-12-18T12:24:09;37.10;;;15.90;;
48743;SDS011;34538;48.836;9.174;2022-12-18T12:26:52;38.40;;;15.37;;
48743;SDS011;34538;48.836;9.174;2022-12-18T12:29:32;34.57;;;14.40;;
48743;SDS011;34538;48.836;9.174;2022-12-18T12:32:17;33.90;;;14.67;;
48743;SDS011;34538;48.836;9.174;2022-12-18T12:34:55;33.87;;;14.20;;
48743;SDS011;34538;48.836;9.174;2022-12-18T12:37:33;30.80;;;14.60;;
48743;SDS011;34538;48.836;9.174;2022-12-18T12:40:06;31.70;;;14.63;;
48743;SDS011;34538;48.836;9.174;2022-12-18T12:42:39;30.48;;;14.82;;
48743;SDS011;34538;48.836;9.174;2022-12-18T12:45:34;31.77;;;14.02;;
48743;SDS011;34538;48.836;9.174;2022-12-18T12:48:05;31.60;;;12.77;;
48743;SDS011;34538;48.836;9.174;2022-12-18T12:50:37;30.23;;;13.83;;
48743;SDS011;34538;48.836;9.174;2022-12-18T12:53:07;29.00;;;13.20;;
48743;SDS011;34538;48.836;9.174;2022-12-18T12:55:41;30.93;;;14.67;;
48743;SDS011;34538;48.836;9.174;2022-12-18T12:58:13;29.57;;;14.63;;
48743;SDS011;34538;48.836;9.174;2022-12-18T13:00:45;36.37;;;15.33;;
48743;SDS011;34538;48.836;9.174;2022-12-18T13:03:23;34.03;;;14.27;;
48743;SDS011;34538;48.836;9.174;2022-12-18T13:06:02;33.70;;;15.38;;
48743;SDS011;34538;48.836;9.174;2022-12-18T13:08:51;35.67;;;14.77;;
48743;SDS011;34538;48.836;9.174;2022-12-18T13:11:28;32.63;;;14.30;;
48743;SDS011;34538;48.836;9.174;2022-12-18T13:14:21;33.43;;;14.07;;
48743;SDS011;34538;48.836;9.174;2022-12-18T13:16:49;31.27;;;14.33;;
48743;SDS011;34538;48.836;9.174;2022-12-18T13:19:23;35.83;;;16.47;;
48743;SDS011;34538;48.836;9.174;2022-12-18T13:21:52;34.37;;;14.10;;
48743;SDS011;34538;48.836;9.174;2022-12-18T13:24:23;32.83;;;15.33;;
48743;SDS011;34538;48.836;9.174;2022-12-18T13:26:52;30.57;;;13.90;;
48743;SDS011;34538;48.836;9.174;2022-12-18T13:32:22;27.10;;;12.83;;
48743;SDS011;34538;48.836;9.174;2022-12-18T13:37:53;34.17;;;14.67;;
48743;SDS011;34538;48.836;9.174;2022-12-18T13:46:00;31.73;;;13.43;;
48743;SDS011;34538;48.836;9.174;2022-12-18T13:48:31;32.20;;;13.90;;
48743;SDS011;34538;48.836;9.174;2022-12-18T13:51:02;26.90;;;11.90;;
48743;SDS011;34538;48.836;9.174;2022-12-18T13:53:33;26.43;;;12.77;;
48743;SDS011;34538;48.836;9.174;2022-12-18T13:56:03;29.93;;;12.80;;
48743;SDS011;34538;48.836;9.174;2022-12-18T13:58:31;32.73;;;12.47;;
48743;SDS011;34538;48.836;9.174;2022-12-18T14:00:58;29.37;;;13.83;;
48743;SDS011;34538;48.836;9.174;2022-12-18T14:03:28;27.97;;;14.07;;
48743;SDS011;34538;48.836;9.174;2022-12-18T14:06:01;20.20;;;8.73;;
48743;SDS011;34538;48.836;9.174;2022-12-18T14:08:37;27.00;;;13.33;;
48743;SDS011;34538;48.836;9.174;2022-12-18T14:11:06;30.97;;;13.80;;
48743;SDS011;34538;48.836;9.174;2022-12-18T14:13:43;30.97;;;14.33;;
48743;SDS011;34538;48.836;9.174;2022-12-18T14:16:13;30.73;;;13.87;;
48743;SDS011;34538;48.836;9.174;2022-12-18T14:18:43;29.50;;;13.10;;
48743;SDS011;34538;48.836;9.174;2022-12-18T14:23:47;35.60;;;14.90;;
48743;SDS011;34538;48.836;9.174;2022-12-18T14:26:19;32.77;;;14.23;;
48743;SDS011;34538;48.836;9.174;2022-12-18T14:28:49;32.37;;;14.63;;
48743;SDS011;34538;48.836;9.174;2022-12-18T14:31:17;32.80;;;14.37;;
48743;SDS011;34538;48.836;9.174;2022-12-18T14:33:46;33.27;;;14.23;;
48743;SDS011;34538;48.836;9.174;2022-12-18T14:36:15;36.30;;;16.30;;
48743;SDS011;34538;48.836;9.174;2022-12-18T14:38:43;36.13;;;16.07;;
48743;SDS011;34538;48.836;9.174;2022-12-18T14:41:16;35.53;;;15.50;;
48743;SDS011;34538;48.836;9.174;2022-12-18T14:43:45;34.63;;;15.40;;
48743;SDS011;34538;48.836;9.174;2022-12-18T14:46:27;37.40;;;16.00;;
48743;SDS011;34538;48.836;9.174;2022-12-18T14:48:59;33.63;;;14.17;;
48743;SDS011;34538;48.836;9.174;2022-12-18T14:51:28;30.83;;;14.40;;
48743;SDS011;34538;48.836;9.174;2022-12-18T14:53:57;31.30;;;14.60;;
48743;SDS011;34538;48.836;9.174;2022-12-18T14:56:27;37.10;;;15.93;;
48743;SDS011;34538;48.836;9.174;2022-12-18T14:58:55;37.83;;;16.13;;